sensor_id;sensor_type;location;lat;lon;timestamp;pressure;altitude;pressure_sealevel;temperature;humidity
34235;BME280;20500;49.856;20.290;2023-03-22T13:44:42;98522.70;;;17.49;57.92
34235;BME280;20500;49.856;20.290;2023-03-22T13:48:03;98515.99;;;17.47;57.83
34235;BME280;20500;49.856;20.290;2023-03-22T13:51:15;98514.98;;;17.48;57.83
34235;BME280;20500;49.856;20.290;2023-03-22T13:54:25;98512.66;;;17.46;57.59
34235;BME280;20500;49.856;20.290;2023-03-22T13:57:48;98511.16;;;17.43;57.50
34235;BME280;20500;49.856;20.290;2023-03-22T14:00:55;98511.77;;;17.36;57.15
34235;BME280;20500;49.856;20.290;2023-03-22T14:04:06;98510.65;;;17.30;57.03
34235;BME280;20500;49.856;20.290;2023-03-22T14:07:21;98508.42;;;17.27;56.78
34235;BME280;20500;49.856;20.290;2023-03-22T14:10:35;98501.70;;;17.29;56.78
34235;BME280;20500;49.856;20.290;2023-03-22T14:13:46;98495.02;;;17.26;56.55
34235;BME280;20500;49.856;20.290;2023-03-22T14:17:00;98492.52;;;17.22;56.60
34235;BME280;20500;49.856;20.290;2023-03-22T14:20:13;98487.43;;;17.21;56.61
34235;BME280;20500;49.856;20.290;2023-03-22T14:23:23;98485.21;;;17.18;56.38
34235;BME280;20500;49.856;20.290;2023-03-22T14:26:31;98484.90;;;17.12;56.24
34235;BME280;20500;49.856;20.290;2023-03-22T14:29:45;98485.36;;;17.04;56.25
34235;BME280;20500;49.856;20.290;2023-03-22T14:32:52;98482.63;;;16.97;56.07
34235;BME280;20500;49.856;20.290;2023-03-22T14:36:03;98480.48;;;16.94;56.18
34235;BME280;20500;49.856;20.290;2023-03-22T14:39:13;98480.82;;;16.95;56.42
34235;BME280;20500;49.856;20.290;2023-03-22T14:42:25;98482.70;;;16.93;56.03
34235;BME280;20500;49.856;20.290;2023-03-22T14:45:33;98484.84;;;16.91;55.95
34235;BME280;20500;49.856;20.290;2023-03-22T14:48:38;98475.20;;;16.88;56.14
34235;BME280;20500;49.856;20.290;2023-03-22T14:51:44;98471.98;;;16.87;56.31
34235;BME280;20500;49.856;20.290;2023-03-22T14:54:53;98472.81;;;16.85;56.33
34235;BME280;20500;49.856;20.290;2023-03-22T14:58:02;98468.25;;;16.87;56.21
34235;BME280;20500;49.856;20.290;2023-03-22T15:01:10;98467.78;;;16.95;56.05
34235;BME280;20500;49.856;20.290;2023-03-22T15:04:17;98465.73;;;17.05;56.02
34235;BME280;20500;49.856;20.290;2023-03-22T15:07:22;98459.20;;;17.16;55.86
34235;BME280;20500;49.856;20.290;2023-03-22T15:10:28;98456.42;;;17.22;55.56
34235;BME280;20500;49.856;20.290;2023-03-22T15:13:34;98448.59;;;17.20;55.34
34235;BME280;20500;49.856;20.290;2023-03-22T15:16:42;98447.70;;;17.15;55.22
34235;BME280;20500;49.856;20.290;2023-03-22T15:19:50;98448.10;;;17.12;55.25
34235;BME280;20500;49.856;20.290;2023-03-22T15:22:57;98449.84;;;17.06;55.25
34235;BME280;20500;49.856;20.290;2023-03-22T15:26:06;98453.13;;;16.98;55.10
34235;BME280;20500;49.856;20.290;2023-03-22T15:29:13;98447.93;;;16.90;54.97
34235;BME280;20500;49.856;20.290;2023-03-22T15:32:20;98450.27;;;16.87;54.90
34235;BME280;20500;49.856;20.290;2023-03-22T15:35:26;98450.38;;;16.90;54.97
34235;BME280;20500;49.856;20.290;2023-03-22T15:38:33;98448.80;;;16.88;54.80
34235;BME280;20500;49.856;20.290;2023-03-22T15:41:41;98452.02;;;16.83;54.48
34235;BME280;20500;49.856;20.290;2023-03-22T15:44:56;98451.05;;;16.78;54.39
34235;BME280;20500;49.856;20.290;2023-03-22T15:48:10;98448.39;;;16.72;54.50
34235;BME280;20500;49.856;20.290;2023-03-22T15:51:18;98446.17;;;16.62;54.43
34235;BME280;20500;49.856;20.290;2023-03-22T15:54:29;98444.67;;;16.53;54.29
34235;BME280;20500;49.856;20.290;2023-03-22T15:57:46;98443.62;;;16.44;54.34
34235;BME280;20500;49.856;20.290;2023-03-22T16:00:52;98444.23;;;16.34;54.37
34235;BME280;20500;49.856;20.290;2023-03-22T16:03:59;98443.21;;;16.25;54.31
34235;BME280;20500;49.856;20.290;2023-03-22T16:07:04;98443.96;;;16.14;54.25
34235;BME280;20500;49.856;20.290;2023-03-22T16:10:16;98441.29;;;16.02;54.46
34235;BME280;20500;49.856;20.290;2023-03-22T16:13:22;98443.34;;;15.89;54.47
34235;BME280;20500;49.856;20.290;2023-03-22T16:16:27;98446.59;;;15.72;54.43
34235;BME280;20500;49.856;20.290;2023-03-22T16:19:35;98445.64;;;15.55;54.42
34235;BME280;20500;49.856;20.290;2023-03-22T16:22:41;98445.25;;;15.40;54.61
34235;BME280;20500;49.856;20.290;2023-03-22T16:25:47;98450.48;;;15.25;54.64
34235;BME280;20500;49.856;20.290;2023-03-22T16:28:52;98453.83;;;15.11;54.58
34235;BME280;20500;49.856;20.290;2023-03-22T16:31:57;98458.23;;;14.99;54.77
34235;BME280;20500;49.856;20.290;2023-03-22T16:35:02;98458.96;;;14.86;54.82
34235;BME280;20500;49.856;20.290;2023-03-22T16:38:10;98460.60;;;14.72;54.80
34235;BME280;20500;49.856;20.290;2023-03-22T16:41:22;98459.81;;;14.60;54.82
34235;BME280;20500;49.856;20.290;2023-03-22T16:44:28;98464.39;;;14.47;54.99
34235;BME280;20500;49.856;20.290;2023-03-22T16:47:33;98462.96;;;14.34;55.01
34235;BME280;20500;49.856;20.290;2023-03-22T16:50:40;98461.95;;;14.23;54.99
34235;BME280;20500;49.856;20.290;2023-03-22T16:53:46;98468.45;;;14.09;55.08
34235;BME280;20500;49.856;20.290;2023-03-22T16:56:51;98476.91;;;13.97;55.07
34235;BME280;20500;49.856;20.290;2023-03-22T16:59:56;98482.66;;;13.85;55.39
34235;BME280;20500;49.856;20.290;2023-03-22T17:03:06;98482.96;;;13.74;55.46
34235;BME280;20500;49.856;20.290;2023-03-22T17:06:14;98485.05;;;13.64;55.50
34235;BME280;20500;49.856;20.290;2023-03-22T17:09:19;98483.08;;;13.54;55.63
34235;BME280;20500;49.856;20.290;2023-03-22T17:12:26;98485.89;;;13.41;55.55
34235;BME280;20500;49.856;20.290;2023-03-22T17:15:34;98486.22;;;13.30;55.80
34235;BME280;20500;49.856;20.290;2023-03-22T17:18:40;98487.27;;;13.16;56.09
34235;BME280;20500;49.856;20.290;2023-03-22T17:21:45;98485.20;;;12.99;56.13
34235;BME280;20500;49.856;20.290;2023-03-22T17:24:50;98487.09;;;12.86;56.24
34235;BME280;20500;49.856;20.290;2023-03-22T17:27:57;98488.02;;;12.76;56.46
34235;BME280;20500;49.856;20.290;2023-03-22T17:31:04;98493.14;;;12.59;56.64
34235;BME280;20500;49.856;20.290;2023-03-22T17:34:12;98493.29;;;12.38;56.64
34235;BME280;20500;49.856;20.290;2023-03-22T17:37:17;98491.77;;;12.20;56.86
34235;BME280;20500;49.856;20.290;2023-03-22T17:40:23;98496.48;;;12.01;57.14
34235;BME280;20500;49.856;20.290;2023-03-22T17:43:28;98496.83;;;11.85;57.34
34235;BME280;20500;49.856;20.290;2023-03-22T17:46:33;98498.66;;;11.75;57.46
34235;BME280;20500;49.856;20.290;2023-03-22T17:49:38;98498.88;;;11.65;57.55
34235;BME280;20500;49.856;20.290;2023-03-22T17:52:44;98499.82;;;11.53;57.58
34235;BME280;20500;49.856;20.290;2023-03-22T17:55:49;98499.55;;;11.42;57.86
34235;BME280;20500;49.856;20.290;2023-03-22T17:58:54;98502.60;;;11.30;57.99
34235;BME280;20500;49.856;20.290;2023-03-22T18:01:59;98495.91;;;11.21;58.28
34235;BME280;20500;49.856;20.290;2023-03-22T18:05:04;98497.23;;;11.17;58.36
34235;BME280;20500;49.856;20.290;2023-03-22T18:08:09;98494.37;;;11.08;58.39
34235;BME280;20500;49.856;20.290;2023-03-22T18:11:14;98498.21;;;10.96;58.57
34235;BME280;20500;49.856;20.290;2023-03-22T18:14:19;98500.94;;;10.85;58.85
34235;BME280;20500;49.856;20.290;2023-03-22T18:17:24;98499.05;;;10.74;59.06
34235;BME280;20500;49.856;20.290;2023-03-22T18:20:29;98499.80;;;10.63;59.29
34235;BME280;20500;49.856;20.290;2023-03-22T18:23:35;98502.26;;;10.56;59.31
34235;BME280;20500;49.856;20.290;2023-03-22T18:26:40;98501.95;;;10.44;59.51
34235;BME280;20500;49.856;20.290;2023-03-22T18:29:45;98503.77;;;10.40;59.79
34235;BME280;20500;49.856;20.290;2023-03-22T18:32:50;98504.98;;;10.33;59.87
34235;BME280;20500;49.856;20.290;2023-03-22T18:35:56;98505.14;;;10.26;60.10
34235;BME280;20500;49.856;20.290;2023-03-22T18:39:01;98504.71;;;10.19;60.21
34235;BME280;20500;49.856;20.290;2023-03-22T18:42:07;98505.89;;;10.14;60.36
34235;BME280;20500;49.856;20.290;2023-03-22T18:45:15;98512.41;;;10.07;60.67
34235;BME280;20500;49.856;20.290;2023-03-22T18:48:20;98511.99;;;10.03;60.85
34235;BME280;20500;49.856;20.290;2023-03-22T18:51:25;98511.75;;;10.00;60.85
34235;BME280;20500;49.856;20.290;2023-03-22T18:54:30;98511.55;;;9.96;60.86
34235;BME280;20500;49.856;20.290;2023-03-22T18:57:35;98512.23;;;9.92;60.96
34235;BME280;20500;49.856;20.290;2023-03-22T19:00:40;98509.58;;;9.85;61.09
34235;BME280;20500;49.856;20.290;2023-03-22T19:03:45;98512.55;;;9.80;61.39
34235;BME280;20500;49.856;20.290;2023-03-22T19:06:50;98508.60;;;9.74;61.35
34235;BME280;20500;49.856;20.290;2023-03-22T19:09:55;98506.50;;;9.63;61.52
34235;BME280;20500;49.856;20.290;2023-03-22T19:13:00;98506.11;;;9.55;61.82
34235;BME280;20500;49.856;20.290;2023-03-22T19:16:07;98506.34;;;9.48;61.89
34235;BME280;20500;49.856;20.290;2023-03-22T19:19:13;98507.46;;;9.40;62.09
34235;BME280;20500;49.856;20.290;2023-03-22T19:22:18;98505.81;;;9.33;62.29
34235;BME280;20500;49.856;20.290;2023-03-22T19:25:23;98508.35;;;9.28;62.50
34235;BME280;20500;49.856;20.290;2023-03-22T19:28:28;98508.85;;;9.26;62.51
34235;BME280;20500;49.856;20.290;2023-03-22T19:31:33;98509.63;;;9.21;62.73
34235;BME280;20500;49.856;20.290;2023-03-22T19:34:38;98511.52;;;9.16;62.83
34235;BME280;20500;49.856;20.290;2023-03-22T19:37:43;98515.77;;;9.11;63.04
34235;BME280;20500;49.856;20.290;2023-03-22T19:40:48;98517.61;;;9.05;62.99
34235;BME280;20500;49.856;20.290;2023-03-22T19:43:53;98515.15;;;8.99;63.17
34235;BME280;20500;49.856;20.290;2023-03-22T19:46:58;98515.92;;;8.98;63.40
34235;BME280;20500;49.856;20.290;2023-03-22T19:50:03;98512.71;;;8.94;63.48
34235;BME280;20500;49.856;20.290;2023-03-22T19:53:08;98515.17;;;8.90;63.64
34235;BME280;20500;49.856;20.290;2023-03-22T19:56:13;98517.86;;;8.86;63.72
34235;BME280;20500;49.856;20.290;2023-03-22T19:59:18;98515.20;;;8.84;63.75
34235;BME280;20500;49.856;20.290;2023-03-22T20:02:24;98513.86;;;8.84;64.07
34235;BME280;20500;49.856;20.290;2023-03-22T20:05:29;98515.83;;;8.82;64.13
34235;BME280;20500;49.856;20.290;2023-03-22T20:08:35;98519.66;;;8.79;64.21
34235;BME280;20500;49.856;20.290;2023-03-22T20:11:41;98521.36;;;8.75;64.28
34235;BME280;20500;49.856;20.290;2023-03-22T20:14:46;98517.65;;;8.70;64.37
34235;BME280;20500;49.856;20.290;2023-03-22T20:17:51;98519.61;;;8.66;64.43
34235;BME280;20500;49.856;20.290;2023-03-22T20:20:56;98517.16;;;8.63;64.57
34235;BME280;20500;49.856;20.290;2023-03-22T20:24:01;98518.86;;;8.63;64.67
34235;BME280;20500;49.856;20.290;2023-03-22T20:27:06;98519.42;;;8.61;64.82
34235;BME280;20500;49.856;20.290;2023-03-22T20:30:14;98516.84;;;8.57;64.78
34235;BME280;20500;49.856;20.290;2023-03-22T20:33:20;98515.48;;;8.50;64.89
34235;BME280;20500;49.856;20.290;2023-03-22T20:36:25;98517.05;;;8.49;65.18
34235;BME280;20500;49.856;20.290;2023-03-22T20:39:30;98515.89;;;8.45;65.18
34235;BME280;20500;49.856;20.290;2023-03-22T20:42:35;98519.27;;;8.38;65.32
34235;BME280;20500;49.856;20.290;2023-03-22T20:45:41;98519.95;;;8.35;65.44
34235;BME280;20500;49.856;20.290;2023-03-22T20:48:45;98521.77;;;8.30;65.49
34235;BME280;20500;49.856;20.290;2023-03-22T20:51:52;98517.35;;;8.23;65.69
34235;BME280;20500;49.856;20.290;2023-03-22T20:54:56;98520.80;;;8.19;65.69
34235;BME280;20500;49.856;20.290;2023-03-22T20:58:01;98521.99;;;8.15;65.88
34235;BME280;20500;49.856;20.290;2023-03-22T21:01:10;98521.59;;;8.13;65.86
34235;BME280;20500;49.856;20.290;2023-03-22T21:04:17;98520.05;;;8.11;65.99
34235;BME280;20500;49.856;20.290;2023-03-22T21:07:22;98518.71;;;8.12;65.99
34235;BME280;20500;49.856;20.290;2023-03-22T21:10:27;98516.81;;;8.13;66.14
34235;BME280;20500;49.856;20.290;2023-03-22T21:13:32;98520.11;;;8.21;66.34
34235;BME280;20500;49.856;20.290;2023-03-22T21:16:37;98519.13;;;8.26;66.25
34235;BME280;20500;49.856;20.290;2023-03-22T21:19:46;98518.77;;;8.28;66.10
34235;BME280;20500;49.856;20.290;2023-03-22T21:22:52;98522.80;;;8.25;66.36
34235;BME280;20500;49.856;20.290;2023-03-22T21:25:58;98522.49;;;8.19;66.49
34235;BME280;20500;49.856;20.290;2023-03-22T21:29:03;98520.59;;;8.22;66.66
34235;BME280;20500;49.856;20.290;2023-03-22T21:32:09;98521.45;;;8.28;66.62
34235;BME280;20500;49.856;20.290;2023-03-22T21:35:14;98525.81;;;8.25;66.48
34235;BME280;20500;49.856;20.290;2023-03-22T21:38:19;98524.39;;;8.19;66.66
34235;BME280;20500;49.856;20.290;2023-03-22T21:41:25;98521.60;;;8.16;66.84
34235;BME280;20500;49.856;20.290;2023-03-22T21:44:29;98523.48;;;8.23;66.94
34235;BME280;20500;49.856;20.290;2023-03-22T21:47:34;98524.02;;;8.29;67.05
34235;BME280;20500;49.856;20.290;2023-03-22T21:50:40;98523.66;;;8.36;67.03
34235;BME280;20500;49.856;20.290;2023-03-22T21:53:46;98524.95;;;8.40;66.92
34235;BME280;20500;49.856;20.290;2023-03-22T21:56:51;98527.26;;;8.41;66.93
34235;BME280;20500;49.856;20.290;2023-03-22T21:59:56;98527.72;;;8.41;67.00
34235;BME280;20500;49.856;20.290;2023-03-22T22:03:01;98525.75;;;8.46;67.05
34235;BME280;20500;49.856;20.290;2023-03-22T22:06:08;98527.44;;;8.56;67.19
34235;BME280;20500;49.856;20.290;2023-03-22T22:09:13;98529.16;;;8.72;67.21
34235;BME280;20500;49.856;20.290;2023-03-22T22:12:18;98530.98;;;8.87;67.13
34235;BME280;20500;49.856;20.290;2023-03-22T22:15:24;98531.59;;;8.98;67.26
34235;BME280;20500;49.856;20.290;2023-03-22T22:18:29;98528.73;;;9.16;67.15
34235;BME280;20500;49.856;20.290;2023-03-22T22:21:34;98526.32;;;9.28;66.99
34235;BME280;20500;49.856;20.290;2023-03-22T22:24:39;98528.51;;;9.36;66.86
34235;BME280;20500;49.856;20.290;2023-03-22T22:27:45;98528.58;;;9.41;66.95
34235;BME280;20500;49.856;20.290;2023-03-22T22:30:49;98527.34;;;9.48;67.03
34235;BME280;20500;49.856;20.290;2023-03-22T22:33:55;98527.65;;;9.53;66.95
34235;BME280;20500;49.856;20.290;2023-03-22T22:37:00;98524.70;;;9.54;67.00
34235;BME280;20500;49.856;20.290;2023-03-22T22:40:07;98522.01;;;9.56;67.06
34235;BME280;20500;49.856;20.290;2023-03-22T22:43:13;98518.10;;;9.58;67.01
34235;BME280;20500;49.856;20.290;2023-03-22T22:46:19;98513.73;;;9.57;66.97
34235;BME280;20500;49.856;20.290;2023-03-22T22:49:24;98507.15;;;9.55;66.93
34235;BME280;20500;49.856;20.290;2023-03-22T22:52:34;98503.77;;;9.52;66.93
34235;BME280;20500;49.856;20.290;2023-03-22T22:55:39;98505.13;;;9.45;66.70
34235;BME280;20500;49.856;20.290;2023-03-22T22:58:45;98504.05;;;9.36;66.79
34235;BME280;20500;49.856;20.290;2023-03-22T23:01:49;98506.92;;;9.28;66.98
34235;BME280;20500;49.856;20.290;2023-03-22T23:04:54;98505.77;;;9.23;66.98
34235;BME280;20500;49.856;20.290;2023-03-22T23:07:59;98503.52;;;9.20;67.04
34235;BME280;20500;49.856;20.290;2023-03-22T23:11:05;98500.98;;;9.22;67.06
34235;BME280;20500;49.856;20.290;2023-03-22T23:14:12;98502.61;;;9.22;67.03
34235;BME280;20500;49.856;20.290;2023-03-22T23:17:17;98504.20;;;9.19;66.80
34235;BME280;20500;49.856;20.290;2023-03-22T23:20:22;98502.73;;;9.09;66.84
34235;BME280;20500;49.856;20.290;2023-03-22T23:23:27;98502.51;;;9.05;67.07
34235;BME280;20500;49.856;20.290;2023-03-22T23:26:32;98498.59;;;9.09;67.20
34235;BME280;20500;49.856;20.290;2023-03-22T23:29:37;98499.23;;;9.16;67.22
34235;BME280;20500;49.856;20.290;2023-03-22T23:32:42;98497.16;;;9.23;67.17
34235;BME280;20500;49.856;20.290;2023-03-22T23:35:47;98495.64;;;9.32;67.12
34235;BME280;20500;49.856;20.290;2023-03-22T23:38:55;98494.79;;;9.39;67.11
34235;BME280;20500;49.856;20.290;2023-03-22T23:42:00;98494.71;;;9.41;67.01
34235;BME280;20500;49.856;20.290;2023-03-22T23:45:08;98496.42;;;9.43;67.04
34235;BME280;20500;49.856;20.290;2023-03-22T23:48:13;98496.95;;;9.45;67.07
34235;BME280;20500;49.856;20.290;2023-03-22T23:51:19;98494.69;;;9.45;67.06
34235;BME280;20500;49.856;20.290;2023-03-22T23:54:22;98493.42;;;9.47;67.05
34235;BME280;20500;49.856;20.290;2023-03-22T23:57:27;98492.22;;;9.45;67.03
